sensor_id;sensor_type;location;lat;lon;timestamp;pressure;altitude;pressure_sealevel;temperature;humidity
70206;BME280;57593;55.896;37.396;2023-04-03T00:00:15;99115.78;;;11.30;100.00
70206;BME280;57593;55.896;37.396;2023-04-03T00:00:45;99105.88;;;11.27;100.00
70206;BME280;57593;55.896;37.396;2023-04-03T00:01:16;99115.34;;;11.28;100.00
70206;BME280;57593;55.896;37.396;2023-04-03T00:01:47;99120.19;;;11.26;100.00
70206;BME280;57593;55.896;37.396;2023-04-03T00:02:18;99120.88;;;11.23;100.00
70206;BME280;57593;55.896;37.396;2023-04-03T00:02:49;99119.78;;;11.24;100.00
70206;BME280;57593;55.896;37.396;2023-04-03T00:03:19;99112.53;;;11.21;100.00
70206;BME280;57593;55.896;37.396;2023-04-03T00:03:50;99119.59;;;11.17;100.00
70206;BME280;57593;55.896;37.396;2023-04-03T00:04:22;99114.50;;;11.24;100.00
70206;BME280;57593;55.896;37.396;2023-04-03T00:04:52;99119.09;;;11.27;100.00
70206;BME280;57593;55.896;37.396;2023-04-03T00:05:23;99126.34;;;11.30;100.00
70206;BME280;57593;55.896;37.396;2023-04-03T00:05:54;99121.50;;;11.32;100.00
70206;BME280;57593;55.896;37.396;2023-04-03T00:06:25;99113.63;;;11.36;100.00
70206;BME280;57593;55.896;37.396;2023-04-03T00:06:56;99118.44;;;11.30;100.00
70206;BME280;57593;55.896;37.396;2023-04-03T00:07:27;99116.34;;;11.23;100.00
70206;BME280;57593;55.896;37.396;2023-04-03T00:07:58;99123.03;;;11.33;100.00
70206;BME280;57593;55.896;37.396;2023-04-03T00:08:29;99119.94;;;11.31;100.00
70206;BME280;57593;55.896;37.396;2023-04-03T00:09:01;99128.13;;;11.26;100.00
70206;BME280;57593;55.896;37.396;2023-04-03T00:09:31;99121.97;;;11.22;100.00
70206;BME280;57593;55.896;37.396;2023-04-03T00:10:03;99118.66;;;11.25;100.00
70206;BME280;57593;55.896;37.396;2023-04-03T00:10:34;99126.94;;;11.23;100.00
70206;BME280;57593;55.896;37.396;2023-04-03T00:11:04;99118.50;;;11.18;100.00
70206;BME280;57593;55.896;37.396;2023-04-03T00:11:35;99124.53;;;11.18;100.00
70206;BME280;57593;55.896;37.396;2023-04-03T00:12:06;99124.28;;;11.23;100.00
70206;BME280;57593;55.896;37.396;2023-04-03T00:12:36;99122.94;;;11.29;100.00
70206;BME280;57593;55.896;37.396;2023-04-03T00:13:08;99117.06;;;11.36;100.00
70206;BME280;57593;55.896;37.396;2023-04-03T00:13:39;99122.44;;;11.24;100.00
70206;BME280;57593;55.896;37.396;2023-04-03T00:14:09;99119.88;;;11.27;100.00
70206;BME280;57593;55.896;37.396;2023-04-03T00:14:40;99115.09;;;11.33;100.00
70206;BME280;57593;55.896;37.396;2023-04-03T00:15:11;99110.84;;;11.28;100.00
70206;BME280;57593;55.896;37.396;2023-04-03T00:15:41;99120.28;;;11.29;100.00
70206;BME280;57593;55.896;37.396;2023-04-03T00:16:12;99122.84;;;11.26;100.00
70206;BME280;57593;55.896;37.396;2023-04-03T00:16:43;99118.06;;;11.15;100.00
70206;BME280;57593;55.896;37.396;2023-04-03T00:17:14;99112.19;;;11.22;100.00
70206;BME280;57593;55.896;37.396;2023-04-03T00:17:44;99114.06;;;11.22;100.00
70206;BME280;57593;55.896;37.396;2023-04-03T00:18:16;99116.28;;;11.20;100.00
70206;BME280;57593;55.896;37.396;2023-04-03T00:18:46;99113.38;;;11.25;100.00
70206;BME280;57593;55.896;37.396;2023-04-03T00:19:17;99119.00;;;11.23;100.00
70206;BME280;57593;55.896;37.396;2023-04-03T00:19:47;99119.53;;;11.29;100.00
70206;BME280;57593;55.896;37.396;2023-04-03T00:20:18;99116.81;;;11.25;100.00
70206;BME280;57593;55.896;37.396;2023-04-03T00:20:49;99112.00;;;11.31;100.00
70206;BME280;57593;55.896;37.396;2023-04-03T00:21:20;99122.25;;;11.32;100.00
70206;BME280;57593;55.896;37.396;2023-04-03T00:21:50;99113.97;;;11.34;100.00
70206;BME280;57593;55.896;37.396;2023-04-03T00:22:21;99112.00;;;11.31;100.00
70206;BME280;57593;55.896;37.396;2023-04-03T00:22:51;99116.53;;;11.14;100.00
70206;BME280;57593;55.896;37.396;2023-04-03T00:23:22;99125.19;;;10.99;100.00
70206;BME280;57593;55.896;37.396;2023-04-03T00:23:53;99124.00;;;11.12;100.00
70206;BME280;57593;55.896;37.396;2023-04-03T00:24:24;99120.13;;;11.22;100.00
70206;BME280;57593;55.896;37.396;2023-04-03T00:24:55;99123.53;;;11.23;100.00
70206;BME280;57593;55.896;37.396;2023-04-03T00:25:26;99115.09;;;11.33;100.00
70206;BME280;57593;55.896;37.396;2023-04-03T00:25:56;99114.50;;;11.24;100.00
70206;BME280;57593;55.896;37.396;2023-04-03T00:26:27;99124.00;;;11.12;100.00
70206;BME280;57593;55.896;37.396;2023-04-03T00:26:58;99120.47;;;11.21;100.00
70206;BME280;57593;55.896;37.396;2023-04-03T00:27:29;99125.56;;;11.29;100.00
70206;BME280;57593;55.896;37.396;2023-04-03T00:28:00;99123.78;;;11.18;100.00
70206;BME280;57593;55.896;37.396;2023-04-03T00:28:30;99120.81;;;11.19;100.00
70206;BME280;57593;55.896;37.396;2023-04-03T00:29:01;99114.97;;;11.13;100.00
70206;BME280;57593;55.896;37.396;2023-04-03T00:29:32;99122.16;;;11.13;100.00
70206;BME280;57593;55.896;37.396;2023-04-03T00:30:03;99122.31;;;11.20;100.00
70206;BME280;57593;55.896;37.396;2023-04-03T00:30:34;99122.84;;;11.26;100.00
70206;BME280;57593;55.896;37.396;2023-04-03T00:31:05;99124.88;;;11.32;100.00
70206;BME280;57593;55.896;37.396;2023-04-03T00:31:35;99114.84;;;11.38;100.00
70206;BME280;57593;55.896;37.396;2023-04-03T00:32:06;99113.47;;;11.44;100.00
70206;BME280;57593;55.896;37.396;2023-04-03T00:32:37;99121.56;;;11.36;100.00
70206;BME280;57593;55.896;37.396;2023-04-03T00:33:11;99121.06;;;11.30;100.00
70206;BME280;57593;55.896;37.396;2023-04-03T00:33:42;99123.88;;;11.21;100.00
70206;BME280;57593;55.896;37.396;2023-04-03T00:34:13;99116.47;;;11.27;100.00
70206;BME280;57593;55.896;37.396;2023-04-03T00:34:43;99115.78;;;11.30;100.00
70206;BME280;57593;55.896;37.396;2023-04-03T00:35:14;99107.59;;;11.35;100.00
70206;BME280;57593;55.896;37.396;2023-04-03T00:35:46;99109.22;;;11.40;100.00
70206;BME280;57593;55.896;37.396;2023-04-03T00:36:17;99113.41;;;11.41;100.00
70206;BME280;57593;55.896;37.396;2023-04-03T00:36:47;99112.63;;;11.40;100.00
70206;BME280;57593;55.896;37.396;2023-04-03T00:37:18;99111.34;;;11.34;100.00
70206;BME280;57593;55.896;37.396;2023-04-03T00:37:51;99109.13;;;11.36;100.00
70206;BME280;57593;55.896;37.396;2023-04-03T00:38:23;99118.25;;;11.39;100.00
70206;BME280;57593;55.896;37.396;2023-04-03T00:38:53;99116.53;;;11.30;100.00
70206;BME280;57593;55.896;37.396;2023-04-03T00:39:25;99116.88;;;11.29;100.00
70206;BME280;57593;55.896;37.396;2023-04-03T00:39:56;99113.63;;;11.36;100.00
70206;BME280;57593;55.896;37.396;2023-04-03T00:40:27;99118.50;;;11.33;100.00
70206;BME280;57593;55.896;37.396;2023-04-03T00:40:58;99114.84;;;11.38;100.00
70206;BME280;57593;55.896;37.396;2023-04-03T00:41:29;99113.97;;;11.34;100.00
70206;BME280;57593;55.896;37.396;2023-04-03T00:41:59;99110.22;;;11.35;100.00
70206;BME280;57593;55.896;37.396;2023-04-03T00:42:30;99108.69;;;11.34;100.00
70206;BME280;57593;55.896;37.396;2023-04-03T00:43:01;99116.81;;;11.25;100.00
70206;BME280;57593;55.896;37.396;2023-04-03T00:43:32;99116.38;;;11.39;100.00
70206;BME280;57593;55.896;37.396;2023-04-03T00:45:21;99111.78;;;11.36;100.00
70206;BME280;57593;55.896;37.396;2023-04-03T00:46:19;99114.84;;;11.22;100.00
70206;BME280;57593;55.896;37.396;2023-04-03T00:46:50;99109.88;;;11.21;100.00
70206;BME280;57593;55.896;37.396;2023-04-03T00:47:21;99119.59;;;11.17;100.00
70206;BME280;57593;55.896;37.396;2023-04-03T00:47:52;99117.16;;;11.24;100.00
70206;BME280;57593;55.896;37.396;2023-04-03T00:48:28;99110.56;;;11.18;100.00
70206;BME280;57593;55.896;37.396;2023-04-03T00:49:01;99118.56;;;11.21;100.00
70206;BME280;57593;55.896;37.396;2023-04-03T00:49:31;99111.66;;;11.17;100.00
70206;BME280;57593;55.896;37.396;2023-04-03T00:50:02;99120.88;;;11.23;100.00
70206;BME280;57593;55.896;37.396;2023-04-03T00:50:37;99118.16;;;11.19;100.00
70206;BME280;57593;55.896;37.396;2023-04-03T00:51:12;99119.34;;;11.22;100.00
70206;BME280;57593;55.896;37.396;2023-04-03T00:51:43;99121.31;;;11.25;100.00
70206;BME280;57593;55.896;37.396;2023-04-03T00:52:17;99112.94;;;11.23;100.00
70206;BME280;57593;55.896;37.396;2023-04-03T00:52:50;99118.25;;;11.23;100.00
70206;BME280;57593;55.896;37.396;2023-04-03T00:53:33;99112.88;;;11.19;100.00
70206;BME280;57593;55.896;37.396;2023-04-03T00:54:06;99113.28;;;11.21;100.00
70206;BME280;57593;55.896;37.396;2023-04-03T00:54:38;99112.09;;;11.19;100.00
70206;BME280;57593;55.896;37.396;2023-04-03T00:55:11;99112.41;;;11.17;100.00
70206;BME280;57593;55.896;37.396;2023-04-03T00:55:42;99119.94;;;11.31;100.00
70206;BME280;57593;55.896;37.396;2023-04-03T00:56:15;99110.31;;;11.39;100.00
70206;BME280;57593;55.896;37.396;2023-04-03T00:56:48;99116.47;;;11.27;100.00
70206;BME280;57593;55.896;37.396;2023-04-03T00:57:21;99115.19;;;11.21;100.00
70206;BME280;57593;55.896;37.396;2023-04-03T00:57:53;99122.16;;;11.29;100.00
70206;BME280;57593;55.896;37.396;2023-04-03T00:58:33;99117.97;;;11.28;100.00
70206;BME280;57593;55.896;37.396;2023-04-03T00:59:20;99112.81;;;11.31;100.00
70206;BME280;57593;55.896;37.396;2023-04-03T01:00:02;99113.28;;;11.37;100.00
70206;BME280;57593;55.896;37.396;2023-04-03T01:00:37;99107.59;;;11.35;100.00
70206;BME280;57593;55.896;37.396;2023-04-03T01:01:13;99116.03;;;11.41;100.00
70206;BME280;57593;55.896;37.396;2023-04-03T01:01:45;99117.47;;;11.38;100.00
70206;BME280;57593;55.896;37.396;2023-04-03T01:02:16;99117.81;;;11.37;100.00
70206;BME280;57593;55.896;37.396;2023-04-03T01:02:47;99116.38;;;11.39;100.00
70206;BME280;57593;55.896;37.396;2023-04-03T01:03:19;99117.47;;;11.38;100.00
70206;BME280;57593;55.896;37.396;2023-04-03T01:03:50;99110.22;;;11.35;100.00
70206;BME280;57593;55.896;37.396;2023-04-03T01:05:00;99117.56;;;11.26;100.00
70206;BME280;57593;55.896;37.396;2023-04-03T01:05:31;99115.78;;;11.30;100.00
70206;BME280;57593;55.896;37.396;2023-04-03T01:06:03;99112.00;;;11.31;100.00
70206;BME280;57593;55.896;37.396;2023-04-03T01:06:36;99111.50;;;11.25;100.00
70206;BME280;57593;55.896;37.396;2023-04-03T01:07:14;99114.25;;;11.29;100.00
70206;BME280;57593;55.896;37.396;2023-04-03T01:07:47;99108.94;;;11.29;100.00
70206;BME280;57593;55.896;37.396;2023-04-03T01:08:19;99118.66;;;11.25;100.00
70206;BME280;57593;55.896;37.396;2023-04-03T01:08:50;99112.28;;;11.26;100.00
70206;BME280;57593;55.896;37.396;2023-04-03T01:09:21;99116.69;;;11.22;100.00
70206;BME280;57593;55.896;37.396;2023-04-03T01:09:56;99124.28;;;11.23;100.00
70206;BME280;57593;55.896;37.396;2023-04-03T01:10:28;99120.47;;;11.21;100.00
70206;BME280;57593;55.896;37.396;2023-04-03T01:10:58;99122.31;;;11.20;100.00
70206;BME280;57593;55.896;37.396;2023-04-03T01:11:30;99117.81;;;11.21;100.00
70206;BME280;57593;55.896;37.396;2023-04-03T01:12:21;99118.56;;;11.21;100.00
70206;BME280;57593;55.896;37.396;2023-04-03T01:12:53;99126.94;;;11.23;100.00
70206;BME280;57593;55.896;37.396;2023-04-03T01:13:27;99124.22;;;11.20;100.00
70206;BME280;57593;55.896;37.396;2023-04-03T01:13:58;99117.81;;;11.21;100.00
70206;BME280;57593;55.896;37.396;2023-04-03T01:14:30;99118.16;;;11.19;100.00
70206;BME280;57593;55.896;37.396;2023-04-03T01:15:10;99121.81;;;11.14;100.00
70206;BME280;57593;55.896;37.396;2023-04-03T01:15:41;99121.13;;;11.18;100.00
70206;BME280;57593;55.896;37.396;2023-04-03T01:16:12;99118.50;;;11.18;100.00
70206;BME280;57593;55.896;37.396;2023-04-03T01:16:42;99117.38;;;11.19;100.00
70206;BME280;57593;55.896;37.396;2023-04-03T01:17:35;99120.53;;;11.24;100.00
70206;BME280;57593;55.896;37.396;2023-04-03T01:18:09;99122.09;;;11.25;100.00
70206;BME280;57593;55.896;37.396;2023-04-03T01:18:40;99121.06;;;11.30;100.00
70206;BME280;57593;55.896;37.396;2023-04-03T01:19:15;99114.25;;;11.29;100.00
70206;BME280;57593;55.896;37.396;2023-04-03T01:19:47;99115.34;;;11.28;100.00
70206;BME280;57593;55.896;37.396;2023-04-03T01:21:08;99116.63;;;11.18;100.00
70206;BME280;57593;55.896;37.396;2023-04-03T01:22:54;99119.78;;;11.24;100.00
70206;BME280;57593;55.896;37.396;2023-04-03T01:24:36;99114.84;;;11.22;100.00
70206;BME280;57593;55.896;37.396;2023-04-03T01:25:10;99113.63;;;11.20;100.00
70206;BME280;57593;55.896;37.396;2023-04-03T01:25:45;99123.88;;;11.21;100.00
70206;BME280;57593;55.896;37.396;2023-04-03T01:26:15;99117.91;;;11.24;100.00
70206;BME280;57593;55.896;37.396;2023-04-03T01:26:46;99116.34;;;11.23;100.00
70206;BME280;57593;55.896;37.396;2023-04-03T01:27:18;99122.94;;;11.29;100.00
70206;BME280;57593;55.896;37.396;2023-04-03T01:27:49;99120.13;;;11.38;100.00
70206;BME280;57593;55.896;37.396;2023-04-03T01:28:53;99115.94;;;11.37;100.00
70206;BME280;57593;55.896;37.396;2023-04-03T01:29:24;99110.22;;;11.35;100.00
70206;BME280;57593;55.896;37.396;2023-04-03T01:29:55;99112.97;;;11.39;100.00
70206;BME280;57593;55.896;37.396;2023-04-03T01:30:32;99122.78;;;11.38;100.00
70206;BME280;57593;55.896;37.396;2023-04-03T01:31:31;99118.25;;;11.39;100.00
70206;BME280;57593;55.896;37.396;2023-04-03T01:32:04;99122.69;;;11.35;100.00
70206;BME280;57593;55.896;37.396;2023-04-03T01:32:35;99121.50;;;11.32;100.00
70206;BME280;57593;55.896;37.396;2023-04-03T01:33:06;99124.13;;;11.32;100.00
70206;BME280;57593;55.896;37.396;2023-04-03T01:33:37;99124.22;;;11.20;100.00
70206;BME280;57593;55.896;37.396;2023-04-03T01:34:08;99131.19;;;11.28;100.00
70206;BME280;57593;55.896;37.396;2023-04-03T01:34:39;99126.84;;;11.36;100.00
70206;BME280;57593;55.896;37.396;2023-04-03T01:35:10;99127.19;;;11.34;100.00
70206;BME280;57593;55.896;37.396;2023-04-03T01:35:42;99129.00;;;11.30;100.00
70206;BME280;57593;55.896;37.396;2023-04-03T01:36:16;99126.09;;;11.35;100.00
70206;BME280;57593;55.896;37.396;2023-04-03T01:36:47;99131.38;;;11.35;100.00
70206;BME280;57593;55.896;37.396;2023-04-03T01:37:18;99133.69;;;11.37;100.00
70206;BME280;57593;55.896;37.396;2023-04-03T01:37:48;99130.97;;;11.33;100.00
70206;BME280;57593;55.896;37.396;2023-04-03T01:38:19;99126.50;;;11.37;100.00
70206;BME280;57593;55.896;37.396;2023-04-03T01:38:52;99126.03;;;11.31;100.00
70206;BME280;57593;55.896;37.396;2023-04-03T01:39:23;99127.97;;;11.35;100.00
70206;BME280;57593;55.896;37.396;2023-04-03T01:39:54;99115.59;;;11.39;100.00
70206;BME280;57593;55.896;37.396;2023-04-03T01:40:25;99120.56;;;11.40;100.00
70206;BME280;57593;55.896;37.396;2023-04-03T01:40:56;99125.75;;;11.37;100.00
70206;BME280;57593;55.896;37.396;2023-04-03T01:41:27;99123.47;;;11.35;100.00
70206;BME280;57593;55.896;37.396;2023-04-03T01:42:04;99128.81;;;11.23;100.00
70206;BME280;57593;55.896;37.396;2023-04-03T01:42:40;99124.56;;;11.34;100.00
70206;BME280;57593;55.896;37.396;2023-04-03T01:43:11;99117.81;;;11.37;100.00
70206;BME280;57593;55.896;37.396;2023-04-03T01:43:42;99114.50;;;11.40;100.00
70206;BME280;57593;55.896;37.396;2023-04-03T01:44:13;99127.19;;;11.34;100.00
70206;BME280;57593;55.896;37.396;2023-04-03T01:44:44;99116.81;;;11.41;100.00
70206;BME280;57593;55.896;37.396;2023-04-03T01:45:15;99123.47;;;11.35;100.00
70206;BME280;57593;55.896;37.396;2023-04-03T01:45:46;99120.13;;;11.38;100.00
70206;BME280;57593;55.896;37.396;2023-04-03T01:46:18;99123.47;;;11.35;100.00
70206;BME280;57593;55.896;37.396;2023-04-03T01:46:49;99124.47;;;11.30;100.00
70206;BME280;57593;55.896;37.396;2023-04-03T01:47:19;99123.25;;;11.28;100.00
70206;BME280;57593;55.896;37.396;2023-04-03T01:47:50;99115.94;;;11.37;100.00
70206;BME280;57593;55.896;37.396;2023-04-03T01:48:21;99116.81;;;11.41;100.00
70206;BME280;57593;55.896;37.396;2023-04-03T01:48:52;99119.28;;;11.50;100.00
70206;BME280;57593;55.896;37.396;2023-04-03T01:49:22;99125.59;;;11.45;100.00
70206;BME280;57593;55.896;37.396;2023-04-03T01:49:53;99121.50;;;11.32;100.00
70206;BME280;57593;55.896;37.396;2023-04-03T01:50:24;99119.78;;;11.24;100.00
70206;BME280;57593;55.896;37.396;2023-04-03T01:50:55;99123.19;;;11.40;100.00
70206;BME280;57593;55.896;37.396;2023-04-03T01:51:25;99121.22;;;11.37;100.00
70206;BME280;57593;55.896;37.396;2023-04-03T01:51:56;99120.31;;;11.45;100.00
70206;BME280;57593;55.896;37.396;2023-04-03T01:52:27;99128.81;;;11.39;100.00
70206;BME280;57593;55.896;37.396;2023-04-03T01:52:57;99121.75;;;11.43;100.00
70206;BME280;57593;55.896;37.396;2023-04-03T01:53:29;99118.09;;;11.47;100.00
70206;BME280;57593;55.896;37.396;2023-04-03T01:53:59;99120.66;;;11.44;100.00
70206;BME280;57593;55.896;37.396;2023-04-03T01:54:30;99113.56;;;11.48;100.00
70206;BME280;57593;55.896;37.396;2023-04-03T01:55:01;99119.44;;;11.25;100.00
70206;BME280;57593;55.896;37.396;2023-04-03T01:55:32;99123.03;;;11.33;100.00
70206;BME280;57593;55.896;37.396;2023-04-03T01:56:03;99120.72;;;11.31;100.00
70206;BME280;57593;55.896;37.396;2023-04-03T01:56:36;99114.09;;;11.38;100.00
70206;BME280;57593;55.896;37.396;2023-04-03T01:57:06;99121.41;;;11.28;100.00
70206;BME280;57593;55.896;37.396;2023-04-03T01:57:37;99110.50;;;11.46;100.00
70206;BME280;57593;55.896;37.396;2023-04-03T01:58:08;99120.47;;;11.52;100.00
70206;BME280;57593;55.896;37.396;2023-04-03T01:58:39;99113.75;;;11.39;100.00
70206;BME280;57593;55.896;37.396;2023-04-03T01:59:10;99107.66;;;11.39;100.00
70206;BME280;57593;55.896;37.396;2023-04-03T01:59:41;99105.22;;;11.46;100.00
70206;BME280;57593;55.896;37.396;2023-04-03T02:00:13;99110.16;;;11.47;100.00
70206;BME280;57593;55.896;37.396;2023-04-03T02:00:43;99110.00;;;11.56;100.00
70206;BME280;57593;55.896;37.396;2023-04-03T02:01:14;99119.84;;;11.59;100.00
70206;BME280;57593;55.896;37.396;2023-04-03T02:01:45;99114.56;;;11.59;100.00
70206;BME280;57593;55.896;37.396;2023-04-03T02:02:17;99118.69;;;11.57;100.00
70206;BME280;57593;55.896;37.396;2023-04-03T02:02:47;99117.00;;;11.48;100.00
70206;BME280;57593;55.896;37.396;2023-04-03T02:03:18;99116.88;;;11.45;100.00
70206;BME280;57593;55.896;37.396;2023-04-03T02:03:49;99107.69;;;11.55;100.00
70206;BME280;57593;55.896;37.396;2023-04-03T02:04:19;99107.41;;;11.60;100.00
70206;BME280;57593;55.896;37.396;2023-04-03T02:04:50;99107.69;;;11.55;100.00
70206;BME280;57593;55.896;37.396;2023-04-03T02:05:21;99110.06;;;11.60;100.00
70206;BME280;57593;55.896;37.396;2023-04-03T02:05:52;99119.50;;;11.61;100.00
70206;BME280;57593;55.896;37.396;2023-04-03T02:06:23;99110.41;;;11.42;100.00
70206;BME280;57593;55.896;37.396;2023-04-03T02:06:53;99117.06;;;11.52;100.00
70206;BME280;57593;55.896;37.396;2023-04-03T02:07:24;99108.38;;;11.51;100.00
70206;BME280;57593;55.896;37.396;2023-04-03T02:07:55;99112.28;;;11.58;100.00
70206;BME280;57593;55.896;37.396;2023-04-03T02:08:25;99113.81;;;11.59;100.00
70206;BME280;57593;55.896;37.396;2023-04-03T02:08:56;99116.13;;;11.44;100.00
70206;BME280;57593;55.896;37.396;2023-04-03T02:09:27;99115.63;;;11.55;100.00
70206;BME280;57593;55.896;37.396;2023-04-03T02:09:57;99119.84;;;11.59;100.00
70206;BME280;57593;55.896;37.396;2023-04-03T02:10:28;99117.47;;;11.54;100.00
70206;BME280;57593;55.896;37.396;2023-04-03T02:11:00;99114.94;;;11.58;100.00
70206;BME280;57593;55.896;37.396;2023-04-03T02:11:31;99113.72;;;11.55;100.00
70206;BME280;57593;55.896;37.396;2023-04-03T02:12:02;99115.97;;;11.53;100.00
70206;BME280;57593;55.896;37.396;2023-04-03T02:12:34;99109.06;;;11.48;100.00
70206;BME280;57593;55.896;37.396;2023-04-03T02:13:05;99112.88;;;11.35;100.00
70206;BME280;57593;55.896;37.396;2023-04-03T02:13:36;99120.31;;;11.45;100.00
70206;BME280;57593;55.896;37.396;2023-04-03T02:14:07;99118.94;;;11.51;100.00
70206;BME280;57593;55.896;37.396;2023-04-03T02:14:38;99114.50;;;11.56;100.00
70206;BME280;57593;55.896;37.396;2023-04-03T02:15:09;99116.13;;;11.44;100.00
70206;BME280;57593;55.896;37.396;2023-04-03T02:15:41;99125.59;;;11.45;100.00
70206;BME280;57593;55.896;37.396;2023-04-03T02:16:12;99125.00;;;11.52;100.00
70206;BME280;57593;55.896;37.396;2023-04-03T02:16:43;99123.13;;;11.52;100.00
70206;BME280;57593;55.896;37.396;2023-04-03T02:17:14;99127.72;;;11.56;100.00
70206;BME280;57593;55.896;37.396;2023-04-03T02:17:45;99115.38;;;11.44;100.00
70206;BME280;57593;55.896;37.396;2023-04-03T02:18:16;99125.06;;;11.40;100.00
70206;BME280;57593;55.896;37.396;2023-04-03T02:18:47;99121.84;;;11.46;100.00
70206;BME280;57593;55.896;37.396;2023-04-03T02:19:17;99121.22;;;11.37;100.00
70206;BME280;57593;55.896;37.396;2023-04-03T02:19:48;99128.75;;;11.51;100.00
70206;BME280;57593;55.896;37.396;2023-04-03T02:20:19;99125.59;;;11.45;100.00
70206;BME280;57593;55.896;37.396;2023-04-03T02:20:49;99123.53;;;11.39;100.00
70206;BME280;57593;55.896;37.396;2023-04-03T02:21:20;99127.38;;;11.41;100.00
70206;BME280;57593;55.896;37.396;2023-04-03T02:21:52;99125.69;;;11.33;100.00
70206;BME280;57593;55.896;37.396;2023-04-03T02:22:22;99117.91;;;11.40;100.00
70206;BME280;57593;55.896;37.396;2023-04-03T02:22:55;99125.59;;;11.45;100.00
70206;BME280;57593;55.896;37.396;2023-04-03T02:23:25;99127.97;;;11.50;100.00
70206;BME280;57593;55.896;37.396;2023-04-03T02:23:56;99118.94;;;11.51;100.00
70206;BME280;57593;55.896;37.396;2023-04-03T02:24:27;99121.16;;;11.49;100.00
70206;BME280;57593;55.896;37.396;2023-04-03T02:24:58;99123.53;;;11.39;100.00
70206;BME280;57593;55.896;37.396;2023-04-03T02:25:30;99119.72;;;11.36;100.00
70206;BME280;57593;55.896;37.396;2023-04-03T02:26:19;99125.69;;;11.33;100.00
70206;BME280;57593;55.896;37.396;2023-04-03T02:26:51;99125.25;;;11.47;100.00
70206;BME280;57593;55.896;37.396;2023-04-03T02:27:21;99122.63;;;11.47;100.00
70206;BME280;57593;55.896;37.396;2023-04-03T02:27:52;99126.44;;;11.49;100.00
70206;BME280;57593;55.896;37.396;2023-04-03T02:28:23;99127.97;;;11.50;100.00
70206;BME280;57593;55.896;37.396;2023-04-03T02:28:54;99115.44;;;11.47;100.00
70206;BME280;57593;55.896;37.396;2023-04-03T02:29:25;99122.44;;;11.56;100.00
70206;BME280;57593;55.896;37.396;2023-04-03T02:29:57;99127.13;;;11.46;100.00
70206;BME280;57593;55.896;37.396;2023-04-03T02:30:28;99120.91;;;11.55;100.00
70206;BME280;57593;55.896;37.396;2023-04-03T02:30:58;99122.63;;;11.47;100.00
70206;BME280;57593;55.896;37.396;2023-04-03T02:31:29;99116.13;;;11.44;100.00
70206;BME280;57593;55.896;37.396;2023-04-03T02:32:01;99116.66;;;11.50;100.00
70206;BME280;57593;55.896;37.396;2023-04-03T02:32:32;99117.31;;;11.47;100.00
70206;BME280;57593;55.896;37.396;2023-04-03T02:33:03;99113.75;;;11.39;100.00
70206;BME280;57593;55.896;37.396;2023-04-03T02:33:35;99121.06;;;11.46;100.00
70206;BME280;57593;55.896;37.396;2023-04-03T02:34:07;99122.84;;;11.42;100.00
70206;BME280;57593;55.896;37.396;2023-04-03T02:34:39;99119.63;;;11.48;100.00
70206;BME280;57593;55.896;37.396;2023-04-03T02:35:11;99116.53;;;11.46;100.00
70206;BME280;57593;55.896;37.396;2023-04-03T02:35:43;99117.75;;;11.49;100.00
70206;BME280;57593;55.896;37.396;2023-04-03T02:36:14;99119.28;;;11.50;100.00
70206;BME280;57593;55.896;37.396;2023-04-03T02:36:48;99120.31;;;11.45;100.00
70206;BME280;57593;55.896;37.396;2023-04-03T02:37:20;99114.50;;;11.40;100.00
70206;BME280;57593;55.896;37.396;2023-04-03T02:37:51;99117.81;;;11.37;100.00
70206;BME280;57593;55.896;37.396;2023-04-03T02:38:23;99108.53;;;11.43;100.00
70206;BME280;57593;55.896;37.396;2023-04-03T02:38:54;99114.25;;;11.45;100.00
70206;BME280;57593;55.896;37.396;2023-04-03T02:39:25;99111.00;;;11.51;100.00
70206;BME280;57593;55.896;37.396;2023-04-03T02:39:56;99117.31;;;11.47;100.00
70206;BME280;57593;55.896;37.396;2023-04-03T02:40:27;99114.00;;;11.50;100.00
70206;BME280;57593;55.896;37.396;2023-04-03T02:41:03;99119.19;;;11.46;100.00
70206;BME280;57593;55.896;37.396;2023-04-03T02:41:35;99115.09;;;11.49;100.00
70206;BME280;57593;55.896;37.396;2023-04-03T02:42:07;99111.94;;;11.43;100.00
70206;BME280;57593;55.896;37.396;2023-04-03T02:42:38;99115.03;;;11.45;100.00
70206;BME280;57593;55.896;37.396;2023-04-03T02:43:09;99117.94;;;11.56;100.00
70206;BME280;57593;55.896;37.396;2023-04-03T02:43:41;99110.56;;;11.49;100.00
70206;BME280;57593;55.896;37.396;2023-04-03T02:44:12;99110.16;;;11.47;100.00
70206;BME280;57593;55.896;37.396;2023-04-03T02:44:43;99116.88;;;11.45;100.00
70206;BME280;57593;55.896;37.396;2023-04-03T02:45:14;99113.22;;;11.49;100.00
70206;BME280;57593;55.896;37.396;2023-04-03T02:45:46;99120.31;;;11.45;100.00
70206;BME280;57593;55.896;37.396;2023-04-03T02:46:17;99112.97;;;11.55;100.00
70206;BME280;57593;55.896;37.396;2023-04-03T02:46:47;99118.09;;;11.47;100.00
70206;BME280;57593;55.896;37.396;2023-04-03T02:47:18;99112.88;;;11.51;100.00
70206;BME280;57593;55.896;37.396;2023-04-03T02:47:48;99112.88;;;11.51;100.00
70206;BME280;57593;55.896;37.396;2023-04-03T02:48:19;99110.22;;;11.51;100.00
70206;BME280;57593;55.896;37.396;2023-04-03T02:48:50;99108.25;;;11.48;100.00
70206;BME280;57593;55.896;37.396;2023-04-03T02:49:20;99113.75;;;11.39;100.00
70206;BME280;57593;55.896;37.396;2023-04-03T02:49:51;99113.81;;;11.43;100.00
70206;BME280;57593;55.896;37.396;2023-04-03T02:50:23;99123.44;;;11.51;100.00